Terminal Aerodrome Forecast
Issued by NWS Charleston, SC

Home | Current Version | Previous Version | Text Only | Print | Product List | Glossary On
Versions: 1 2 3 4 5 6 7 8 9 10 11 12 13 14 15 16 17 18 19 20 21 22 23 24 25 26 27
712
FTUS42 KCHS 231120
TAFCHS
TAF
KCHS 231120Z 2312/2412 20010KT P6SM FEW030 BKN120
     FM231500 23013G21KT P6SM VCSH SCT015 BKN030
      TEMPO 2315/2317 6SM SHRA BKN015
     FM231900 28016G26KT P6SM BKN040
     FM232300 28013G18KT P6SM BKN070
     FM240600 29015G20KT P6SM FEW035=

USA.gov is the U.S. government's official web portal to all federal, state and local government web resources and services.